Terminal Aerodrome Forecast
Issued by NWS Shreveport, LA

Home | Current Version | Previous Version | Text Only | Print | Product List | Glossary On
Versions: 1 2 3 4 5 6 7 8 9 10 11 12 13
000
FTUS44 KSHV 171100
TAFTYR
TAF
KTYR 171120Z 1712/1812 12008KT P6SM BKN035 BKN250
      TEMPO 1712/1716 BKN025
     FM171800 10007KT P6SM BKN040 BKN250
     FM180000 VRB04KT P6SM BKN040 BKN250=

USA.gov is the U.S. government's official web portal to all federal, state and local government web resources and services.